Time;durP1;ratioP1;P1;durP2;ratioP2;P2;SDS_P1;SDS_P2;PMS_P1;PMS_P2;Temp;Humidity;BMP_temperature;BMP_pressure;BME280_temperature;BME280_humidity;BME280_pressure;Samples;Min_cycle;Max_cycle;Signal;HPM_P1;HPM_P2
2024/01/08 00:00:47;;;;;;;9.20;6.75;;;-0.40;86.70;;;;;;5019283;28;20116;-62
2024/01/08 00:03:13;;;;;;;11.73;6.95;;;-0.40;86.70;;;;;;5028966;28;20090;-62
2024/01/08 00:05:40;;;;;;;11.70;7.30;;;-0.40;86.90;;;;;;5027423;28;20048;-62
2024/01/08 00:08:07;;;;;;;10.35;6.82;;;-0.40;86.90;;;;;;5028180;28;20037;-62
2024/01/08 00:10:32;;;;;;;9.55;6.82;;;-0.40;86.90;;;;;;5028331;28;20208;-62
2024/01/08 00:12:58;;;;;;;8.82;6.28;;;-0.40;86.80;;;;;;5031808;28;20445;-62
2024/01/08 00:15:23;;;;;;;8.82;6.72;;;-0.40;86.70;;;;;;5030646;28;20064;-60
2024/01/08 00:17:49;;;;;;;9.82;6.50;;;-0.40;86.70;;;;;;5028064;28;20084;-60
2024/01/08 00:20:17;;;;;;;9.38;6.63;;;-0.50;86.60;;;;;;5034151;28;20038;-61
2024/01/08 00:22:42;;;;;;;10.45;6.30;;;-0.50;86.70;;;;;;5030217;28;20045;-61
2024/01/08 00:25:08;;;;;;;9.63;6.80;;;-0.50;86.70;;;;;;5025723;28;20439;-61
2024/01/08 00:27:34;;;;;;;9.27;6.07;;;-0.60;86.80;;;;;;5031768;28;20042;-61
2024/01/08 00:29:59;;;;;;;9.75;6.75;;;-0.50;86.70;;;;;;5035048;28;20037;-59
2024/01/08 00:32:25;;;;;;;8.82;6.28;;;-0.50;86.50;;;;;;5027990;28;20120;-62
2024/01/08 00:34:51;;;;;;;9.93;6.53;;;-0.60;86.50;;;;;;5023247;28;20444;-61
2024/01/08 00:37:17;;;;;;;8.20;5.95;;;-0.60;86.70;;;;;;5029897;28;20041;-60
2024/01/08 00:39:43;;;;;;;9.75;6.22;;;-0.60;86.60;;;;;;5027832;28;20623;-60
2024/01/08 00:42:09;;;;;;;10.07;6.55;;;-0.60;86.60;;;;;;5027538;28;20094;-60
2024/01/08 00:44:34;;;;;;;9.05;6.30;;;-0.60;86.60;;;;;;5020244;28;20303;-59
2024/01/08 00:47:00;;;;;;;9.88;6.55;;;-0.70;86.60;;;;;;5029881;28;20110;-61
2024/01/08 00:49:26;;;;;;;9.32;6.47;;;-0.70;86.40;;;;;;5026239;28;20045;-61
2024/01/08 00:51:51;;;;;;;11.48;6.60;;;-0.70;86.40;;;;;;5025945;28;20581;-61
2024/01/08 00:54:17;;;;;;;10.43;6.90;;;-0.70;87.30;;;;;;5030009;28;20068;-60
2024/01/08 00:56:43;;;;;;;11.32;7.10;;;-0.70;86.40;;;;;;5033986;28;20033;-62
2024/01/08 00:59:08;;;;;;;10.23;6.97;;;-0.70;86.50;;;;;;5034421;28;20021;-62
2024/01/08 01:01:34;;;;;;;9.38;6.40;;;-0.70;87.40;;;;;;5021215;28;20090;-62
2024/01/08 01:04:00;;;;;;;8.82;5.90;;;-0.80;86.50;;;;;;5028340;28;20030;-62
2024/01/08 01:06:26;;;;;;;10.45;6.38;;;-0.70;86.60;;;;;;5029626;28;20032;-61
2024/01/08 01:08:51;;;;;;;11.85;6.30;;;-0.80;86.60;;;;;;5030053;28;20033;-62
2024/01/08 01:11:17;;;;;;;9.80;6.20;;;-0.80;86.50;;;;;;5031898;28;20160;-60
2024/01/08 01:13:42;;;;;;;10.30;6.25;;;-0.80;86.30;;;;;;5025586;28;20048;-59
2024/01/08 01:16:08;;;;;;;10.32;6.90;;;-0.70;86.40;;;;;;5029708;28;20401;-61
2024/01/08 01:18:34;;;;;;;8.57;6.22;;;-0.80;86.20;;;;;;5032974;28;20524;-59
2024/01/08 01:21:00;;;;;;;8.88;5.72;;;-0.80;86.30;;;;;;5026098;28;20037;-61
2024/01/08 01:23:25;;;;;;;9.00;6.22;;;-0.80;86.20;;;;;;5030916;28;20029;-60
2024/01/08 01:25:51;;;;;;;9.60;6.07;;;-0.80;86.30;;;;;;5021930;28;20030;-60
2024/01/08 01:28:16;;;;;;;8.35;5.90;;;-0.80;86.50;;;;;;5030637;28;20037;-61
2024/01/08 01:30:42;;;;;;;10.90;5.93;;;-0.80;86.40;;;;;;5029902;28;20030;-60
2024/01/08 01:33:08;;;;;;;9.85;5.93;;;-0.80;86.30;;;;;;5029843;28;20078;-61
2024/01/08 01:35:33;;;;;;;10.02;6.70;;;-0.80;86.30;;;;;;5029837;28;21043;-62
2024/01/08 01:37:59;;;;;;;7.15;5.43;;;-0.80;86.30;;;;;;5026804;28;20043;-61
2024/01/08 01:40:27;;;;;;;8.50;5.88;;;-0.80;86.10;;;;;;5022270;28;20113;-61
2024/01/08 01:42:54;;;;;;;9.02;5.68;;;-0.80;86.30;;;;;;5025438;28;20533;-61
2024/01/08 01:45:23;;;;;;;9.27;5.93;;;-0.80;86.30;;;;;;5029218;28;20041;-60
2024/01/08 01:47:51;;;;;;;8.23;5.72;;;-0.80;86.20;;;;;;5026700;28;20037;-62
2024/01/08 01:50:17;;;;;;;7.05;5.47;;;-0.80;86.00;;;;;;5026048;28;20029;-62
2024/01/08 01:52:42;;;;;;;8.40;5.60;;;-0.80;86.00;;;;;;5021404;28;20415;-62
2024/01/08 01:55:10;;;;;;;8.27;5.75;;;-0.80;85.60;;;;;;5025425;28;20045;-61
2024/01/08 01:57:36;;;;;;;6.65;4.93;;;-0.80;85.60;;;;;;5027812;28;20061;-59
2024/01/08 02:00:03;;;;;;;6.68;5.20;;;-0.80;85.80;;;;;;5029259;28;20057;-62
2024/01/08 02:02:30;;;;;;;7.95;5.32;;;-0.80;85.80;;;;;;5032171;28;20463;-62
2024/01/08 02:04:57;;;;;;;6.97;5.15;;;-0.80;85.80;;;;;;5029222;28;20107;-61
2024/01/08 02:07:22;;;;;;;7.55;5.25;;;-0.80;85.70;;;;;;5028383;28;21261;-61
2024/01/08 02:09:49;;;;;;;7.22;4.90;;;-0.90;85.70;;;;;;5025939;28;20124;-61
2024/01/08 02:12:17;;;;;;;8.07;5.53;;;-0.80;85.70;;;;;;5030605;28;20438;-61
2024/01/08 02:14:46;;;;;;;6.10;4.78;;;-0.80;85.80;;;;;;5026697;28;20029;-61
2024/01/08 02:17:12;;;;;;;7.38;5.15;;;-0.80;85.90;;;;;;5023298;28;20049;-60
2024/01/08 02:19:38;;;;;;;8.75;4.88;;;-0.80;86.80;;;;;;5028644;28;20454;-61
2024/01/08 02:22:04;;;;;;;6.30;5.05;;;-0.80;86.00;;;;;;5027230;28;20041;-61
2024/01/08 02:24:29;;;;;;;7.80;5.00;;;-0.80;85.80;;;;;;5026571;28;20037;-60
2024/01/08 02:26:57;;;;;;;6.32;4.78;;;-0.80;85.80;;;;;;5032593;28;20137;-61
2024/01/08 02:29:24;;;;;;;7.40;5.20;;;-0.80;85.80;;;;;;5029019;28;20164;-61
2024/01/08 02:31:50;;;;;;;7.40;5.00;;;-0.80;85.70;;;;;;5021249;28;20058;-61
2024/01/08 02:34:15;;;;;;;8.30;6.25;;;-0.80;86.40;;;;;;5027568;28;20535;-62
2024/01/08 02:36:41;;;;;;;7.18;4.70;;;-0.80;85.60;;;;;;5023217;28;20038;-60
2024/01/08 02:39:06;;;;;;;8.48;5.00;;;-0.80;85.60;;;;;;5031178;28;20040;-62
2024/01/08 02:41:32;;;;;;;7.38;4.90;;;-0.80;85.60;;;;;;5024638;28;20309;-60
2024/01/08 02:43:57;;;;;;;6.95;5.03;;;-0.80;85.60;;;;;;5028009;28;20104;-61
2024/01/08 02:46:23;;;;;;;5.97;4.78;;;-0.80;85.50;;;;;;5035486;28;20400;-62
2024/01/08 02:48:49;;;;;;;6.70;5.03;;;-0.80;85.40;;;;;;5019465;28;20037;-62
2024/01/08 02:51:15;;;;;;;7.65;4.85;;;-0.80;85.40;;;;;;5024688;28;20049;-61
2024/01/08 02:53:40;;;;;;;7.15;4.57;;;-0.90;85.30;;;;;;5029377;28;20036;-61
2024/01/08 02:56:06;;;;;;;6.75;4.95;;;-0.80;86.10;;;;;;5028194;28;20374;-59
2024/01/08 02:58:32;;;;;;;6.82;5.05;;;-0.80;85.30;;;;;;5028845;28;20125;-62
2024/01/08 03:00:59;;;;;;;5.82;4.57;;;-0.90;85.10;;;;;;5023284;28;20065;-62
2024/01/08 03:03:25;;;;;;;6.35;4.70;;;-0.90;85.10;;;;;;5018800;28;20121;-61
2024/01/08 03:05:51;;;;;;;8.13;4.63;;;-0.90;85.30;;;;;;5022057;28;20151;-59
2024/01/08 03:08:16;;;;;;;7.03;5.10;;;-0.90;85.30;;;;;;5027679;28;20033;-60
2024/01/08 03:10:42;;;;;;;5.80;4.40;;;-0.90;85.30;;;;;;5019205;28;20536;-60
2024/01/08 03:13:08;;;;;;;5.45;4.50;;;-0.90;85.30;;;;;;5020657;28;20060;-62
2024/01/08 03:15:33;;;;;;;7.28;4.75;;;-0.90;85.10;;;;;;5024480;28;20544;-62
2024/01/08 03:17:59;;;;;;;5.35;4.30;;;-0.90;84.80;;;;;;5022446;28;21530;-62
2024/01/08 03:20:24;;;;;;;6.47;4.63;;;-0.90;84.90;;;;;;5027186;28;20040;-62
2024/01/08 03:22:51;;;;;;;6.68;4.75;;;-0.90;84.80;;;;;;5020712;28;20564;-62
2024/01/08 03:25:18;;;;;;;6.85;4.90;;;-0.90;84.70;;;;;;5018795;28;20041;-61
2024/01/08 03:27:43;;;;;;;5.88;4.30;;;-0.90;84.70;;;;;;5019277;28;20038;-62
2024/01/08 03:30:10;;;;;;;7.22;5.00;;;-0.90;84.60;;;;;;5023655;28;20037;-62
2024/01/08 03:32:35;;;;;;;5.90;4.30;;;-1.00;84.50;;;;;;5015277;28;20029;-61
2024/01/08 03:35:01;;;;;;;5.80;4.45;;;-1.00;84.60;;;;;;5020437;28;20476;-61
2024/01/08 03:37:26;;;;;;;5.90;4.30;;;-1.00;84.60;;;;;;5021965;28;20107;-61
2024/01/08 03:39:52;;;;;;;5.25;4.25;;;-1.00;84.60;;;;;;5016897;28;20413;-62
2024/01/08 03:42:18;;;;;;;5.15;4.10;;;-1.00;84.50;;;;;;5023327;28;20092;-62
2024/01/08 03:44:43;;;;;;;5.55;4.32;;;-1.00;84.60;;;;;;5014939;28;20389;-60
2024/01/08 03:47:10;;;;;;;6.05;4.40;;;-1.00;84.40;;;;;;5022420;28;20033;-61
2024/01/08 03:49:36;;;;;;;5.03;4.03;;;-1.00;84.30;;;;;;5023711;28;20096;-61
2024/01/08 03:52:01;;;;;;;4.63;3.95;;;-1.00;84.20;;;;;;5026025;28;20452;-61
2024/01/08 03:54:27;;;;;;;7.05;4.28;;;-1.00;84.20;;;;;;5019678;28;20521;-61
2024/01/08 03:56:52;;;;;;;4.97;3.83;;;-1.00;84.20;;;;;;5018144;28;20509;-59
2024/01/08 03:59:18;;;;;;;5.10;4.10;;;-1.00;84.30;;;;;;5023493;28;20133;-61
2024/01/08 04:01:49;;;;;;;5.05;3.80;;;-1.00;84.10;;;;;;5025307;28;20029;-62
2024/01/08 04:04:14;;;;;;;5.05;4.22;;;-1.00;84.20;;;;;;5024238;28;20503;-61
2024/01/08 04:06:40;;;;;;;4.47;4.07;;;-1.00;84.00;;;;;;5020173;28;20090;-61
2024/01/08 04:09:05;;;;;;;5.13;4.05;;;-1.00;84.10;;;;;;5030173;28;20029;-61
2024/01/08 04:11:31;;;;;;;5.38;4.07;;;-1.00;84.20;;;;;;5022572;28;20036;-61
2024/01/08 04:13:57;;;;;;;5.45;4.28;;;-1.00;84.20;;;;;;5027987;28;20057;-62
2024/01/08 04:16:22;;;;;;;6.82;4.15;;;-1.00;84.20;;;;;;5025053;28;20037;-62
2024/01/08 04:18:48;;;;;;;5.28;4.13;;;-1.00;84.20;;;;;;5034495;28;20041;-61
2024/01/08 04:21:17;;;;;;;5.13;3.95;;;-1.00;84.30;;;;;;5030567;28;20485;-62
2024/01/08 04:23:42;;;;;;;5.55;4.30;;;-1.00;84.20;;;;;;5022046;28;20030;-61
2024/01/08 04:26:14;;;;;;;4.97;3.83;;;-1.00;84.00;;;;;;5020084;28;20046;-59
2024/01/08 04:28:40;;;;;;;4.53;4.10;;;-1.00;83.70;;;;;;5022065;28;20033;-60
2024/01/08 04:31:05;;;;;;;5.03;4.15;;;-1.00;83.90;;;;;;5025351;28;20038;-61
2024/01/08 04:33:31;;;;;;;5.50;4.05;;;-1.00;83.80;;;;;;5019851;28;20029;-61
2024/01/08 04:35:56;;;;;;;5.63;4.28;;;-1.00;84.60;;;;;;5020783;28;20386;-62
2024/01/08 04:38:22;;;;;;;6.22;3.80;;;-1.00;83.80;;;;;;5025589;28;20116;-60
2024/01/08 04:40:47;;;;;;;6.75;4.32;;;-1.00;83.80;;;;;;5020390;28;20045;-61
2024/01/08 04:43:13;;;;;;;4.88;4.00;;;-1.00;83.90;;;;;;5019052;28;20042;-61
2024/01/08 04:45:38;;;;;;;6.57;4.38;;;-1.00;83.90;;;;;;5021060;28;20061;-61
2024/01/08 04:48:04;;;;;;;4.30;3.80;;;-1.00;83.80;;;;;;5022164;28;20033;-61
2024/01/08 04:50:30;;;;;;;4.60;3.88;;;-1.00;83.90;;;;;;5024943;28;20041;-61
2024/01/08 04:52:56;;;;;;;4.88;4.07;;;-1.00;83.80;;;;;;5019112;28;20029;-61
2024/01/08 04:55:21;;;;;;;5.38;4.32;;;-1.00;83.50;;;;;;5031679;28;20083;-62
2024/01/08 04:57:48;;;;;;;4.55;3.90;;;-1.00;83.70;;;;;;5018305;28;20501;-61
2024/01/08 05:00:14;;;;;;;5.88;4.13;;;-1.00;83.90;;;;;;5022264;28;20041;-60
2024/01/08 05:02:40;;;;;;;4.82;3.92;;;-0.90;84.20;;;;;;5027494;28;20102;-61
2024/01/08 05:05:07;;;;;;;5.32;4.22;;;-1.00;85.00;;;;;;5021580;28;20497;-61
2024/01/08 05:07:32;;;;;;;6.00;4.10;;;-1.00;84.10;;;;;;5026950;28;20038;-60
2024/01/08 05:09:58;;;;;;;5.25;4.20;;;-1.00;84.00;;;;;;5020751;28;20074;-62
2024/01/08 05:12:24;;;;;;;5.53;4.05;;;-0.90;84.00;;;;;;5021873;28;20504;-59
2024/01/08 05:14:49;;;;;;;6.03;4.70;;;-0.90;83.90;;;;;;5018716;28;20612;-60
2024/01/08 05:17:15;;;;;;;4.40;3.90;;;-0.90;83.90;;;;;;5019489;28;20063;-60
2024/01/08 05:19:40;;;;;;;5.45;4.35;;;-0.90;84.00;;;;;;5026626;28;21182;-60
2024/01/08 05:22:06;;;;;;;5.82;4.40;;;-0.90;84.00;;;;;;5024207;28;20029;-61
2024/01/08 05:24:32;;;;;;;4.90;4.40;;;-0.90;83.90;;;;;;5026149;28;20042;-59
2024/01/08 05:26:57;;;;;;;5.93;4.60;;;-0.90;83.50;;;;;;5019275;28;20532;-60
2024/01/08 05:29:23;;;;;;;6.47;4.13;;;-0.90;83.50;;;;;;5021490;28;20037;-62
2024/01/08 05:31:48;;;;;;;5.43;4.40;;;-0.90;83.70;;;;;;5007129;28;20098;-62
2024/01/08 05:34:14;;;;;;;5.32;4.50;;;-0.90;84.40;;;;;;5014807;28;20045;-61
2024/01/08 05:36:42;;;;;;;5.10;4.10;;;-0.90;83.70;;;;;;5019121;28;20037;-61
2024/01/08 05:39:08;;;;;;;5.72;4.85;;;-0.90;83.70;;;;;;5023844;28;20041;-62
2024/01/08 05:41:39;;;;;;;4.93;4.10;;;-0.90;83.70;;;;;;5021469;28;20037;-62
2024/01/08 05:44:04;;;;;;;6.55;4.63;;;-0.90;83.50;;;;;;5024006;28;20412;-59
2024/01/08 05:46:30;;;;;;;5.07;4.22;;;-0.80;83.70;;;;;;5027104;28;20517;-61
2024/01/08 05:48:55;;;;;;;5.85;4.20;;;-0.80;83.90;;;;;;5025712;28;20434;-61
2024/01/08 05:51:21;;;;;;;6.32;4.53;;;-0.80;83.70;;;;;;5027504;28;20467;-60
2024/01/08 05:53:47;;;;;;;6.55;5.00;;;-0.80;83.90;;;;;;5028462;28;20037;-62
2024/01/08 05:56:12;;;;;;;7.50;4.90;;;-0.80;83.70;;;;;;5021373;28;20033;-61
2024/01/08 05:58:38;;;;;;;6.15;4.32;;;-0.80;83.50;;;;;;5030026;28;20037;-61
2024/01/08 06:01:03;;;;;;;5.95;4.50;;;-0.80;83.70;;;;;;5024347;28;20072;-61
2024/01/08 06:03:29;;;;;;;6.30;4.38;;;-0.80;83.80;;;;;;5027797;28;20245;-60
2024/01/08 06:05:54;;;;;;;5.80;4.40;;;-0.80;83.70;;;;;;5024081;28;20041;-60
2024/01/08 06:08:20;;;;;;;6.03;4.45;;;-0.80;83.60;;;;;;5025187;28;20064;-60
2024/01/08 06:10:47;;;;;;;6.78;4.93;;;-0.70;83.50;;;;;;5023608;28;20030;-60
2024/01/08 06:13:13;;;;;;;5.78;4.63;;;-0.70;83.50;;;;;;5027448;28;20113;-61
2024/01/08 06:15:38;;;;;;;6.30;4.43;;;-0.70;83.30;;;;;;5027780;28;20116;-60
2024/01/08 06:18:04;;;;;;;5.28;4.78;;;-0.80;83.20;;;;;;5028267;28;20037;-61
2024/01/08 06:20:30;;;;;;;6.32;4.40;;;-0.80;83.20;;;;;;5017106;28;20028;-61
2024/01/08 06:22:56;;;;;;;6.65;4.78;;;-0.80;83.30;;;;;;5024995;28;20041;-61
2024/01/08 06:25:21;;;;;;;5.30;4.35;;;-0.80;83.30;;;;;;5028692;28;20413;-61
2024/01/08 06:27:47;;;;;;;6.00;4.70;;;-0.80;83.30;;;;;;5026723;28;20616;-60
2024/01/08 06:30:13;;;;;;;6.43;4.60;;;-0.80;83.20;;;;;;5019243;28;20048;-61
2024/01/08 06:32:38;;;;;;;6.78;4.82;;;-0.80;83.20;;;;;;5021831;28;20046;-61
2024/01/08 06:35:04;;;;;;;8.13;5.15;;;-0.80;83.00;;;;;;5025090;28;20033;-61
2024/01/08 06:37:30;;;;;;;6.55;4.63;;;-0.90;82.90;;;;;;5028590;28;20497;-61
2024/01/08 06:39:55;;;;;;;6.55;4.78;;;-0.90;82.80;;;;;;5013443;28;20454;-62
2024/01/08 06:42:21;;;;;;;5.88;4.40;;;-0.90;82.90;;;;;;5019518;28;20030;-61
2024/01/08 06:44:46;;;;;;;6.22;4.72;;;-0.90;83.20;;;;;;5028563;28;20037;-62
2024/01/08 06:47:12;;;;;;;6.38;4.68;;;-0.90;82.80;;;;;;5030312;28;20041;-61
2024/01/08 06:49:37;;;;;;;7.35;5.15;;;-0.90;83.00;;;;;;5015752;28;20501;-62
2024/01/08 06:52:03;;;;;;;5.72;4.53;;;-0.90;82.90;;;;;;5025236;28;20029;-61
2024/01/08 06:54:29;;;;;;;5.25;4.47;;;-0.90;82.90;;;;;;5025616;28;20468;-62
2024/01/08 06:56:54;;;;;;;8.02;4.97;;;-0.90;82.80;;;;;;5029628;28;20052;-61
2024/01/08 06:59:20;;;;;;;7.13;4.85;;;-0.90;82.80;;;;;;5026784;28;20033;-61
2024/01/08 07:01:51;;;;;;;6.43;4.88;;;-0.90;82.80;;;;;;5020560;28;20136;-61
2024/01/08 07:04:17;;;;;;;6.43;4.97;;;-0.90;83.00;;;;;;5027947;28;20079;-61
2024/01/08 07:06:42;;;;;;;6.15;4.88;;;-0.90;82.90;;;;;;5026124;28;20133;-61
2024/01/08 07:09:08;;;;;;;6.30;4.97;;;-0.90;82.90;;;;;;5028389;28;20029;-60
2024/01/08 07:11:33;;;;;;;7.18;5.07;;;-0.90;82.70;;;;;;5024797;28;20037;-61
2024/01/08 07:13:59;;;;;;;7.82;5.03;;;-0.90;82.80;;;;;;5027066;28;20053;-62
2024/01/08 07:16:25;;;;;;;12.80;5.30;;;-0.90;82.80;;;;;;5024583;28;20049;-59
2024/01/08 07:18:51;;;;;;;8.38;4.97;;;-0.90;82.90;;;;;;5020600;28;20037;-61
2024/01/08 07:21:16;;;;;;;7.95;4.70;;;-0.90;83.00;;;;;;5025213;28;20045;-61
2024/01/08 07:23:45;;;;;;;8.45;5.13;;;-0.90;82.80;;;;;;5026231;28;20044;-59
2024/01/08 07:26:14;;;;;;;6.38;5.15;;;-0.90;82.80;;;;;;5027073;28;20042;-61
2024/01/08 07:28:41;;;;;;;7.30;5.18;;;-0.90;83.70;;;;;;5028004;28;20152;-62
2024/01/08 07:31:06;;;;;;;6.60;5.07;;;-0.90;82.80;;;;;;5023991;28;20117;-61
2024/01/08 07:33:33;;;;;;;7.10;5.32;;;-0.90;82.80;;;;;;5022666;28;20113;-61
2024/01/08 07:35:59;;;;;;;7.40;5.50;;;-0.90;82.80;;;;;;5024885;28;20029;-60
2024/01/08 07:38:24;;;;;;;8.00;5.78;;;-0.90;82.80;;;;;;5027824;28;20041;-62
2024/01/08 07:40:50;;;;;;;9.40;5.32;;;-0.80;82.80;;;;;;5022507;28;20033;-59
2024/01/08 07:43:16;;;;;;;7.43;5.53;;;-0.80;83.00;;;;;;5025146;28;20046;-62
2024/01/08 07:45:41;;;;;;;6.68;5.45;;;-0.80;83.00;;;;;;5023031;28;20072;-60
2024/01/08 07:48:07;;;;;;;8.02;5.65;;;-0.80;82.90;;;;;;5029209;28;20409;-60
2024/01/08 07:50:32;;;;;;;8.48;5.68;;;-0.80;83.00;;;;;;5021783;28;20037;-61
2024/01/08 07:52:58;;;;;;;6.50;5.15;;;-0.80;82.80;;;;;;5024992;28;20508;-61
2024/01/08 07:55:24;;;;;;;10.00;6.10;;;-0.80;82.60;;;;;;5030870;28;20523;-61
2024/01/08 07:57:49;;;;;;;8.32;5.50;;;-0.80;82.60;;;;;;5027097;28;20044;-61
2024/01/08 08:00:15;;;;;;;7.18;5.47;;;-0.80;82.60;;;;;;5027948;28;20056;-61
2024/01/08 08:02:41;;;;;;;8.35;6.10;;;-0.70;82.70;;;;;;5024163;28;20517;-60
2024/01/08 08:05:06;;;;;;;8.95;5.55;;;-0.70;82.80;;;;;;5023843;28;20041;-60
2024/01/08 08:07:32;;;;;;;8.80;5.60;;;-0.70;82.90;;;;;;5019519;28;20033;-60
2024/01/08 08:09:58;;;;;;;7.13;5.22;;;-0.70;82.90;;;;;;5029597;28;20313;-60
2024/01/08 08:12:24;;;;;;;8.55;5.50;;;-0.70;82.80;;;;;;5027005;28;20037;-62
2024/01/08 08:14:50;;;;;;;8.77;5.60;;;-0.70;82.60;;;;;;5030370;28;20447;-61
2024/01/08 08:17:16;;;;;;;9.90;5.65;;;-0.70;82.60;;;;;;5025834;28;20052;-61
2024/01/08 08:19:42;;;;;;;8.23;5.60;;;-0.70;82.70;;;;;;5031990;28;20025;-61
2024/01/08 08:22:11;;;;;;;7.60;4.95;;;-0.60;82.70;;;;;;5028213;28;20128;-60
2024/01/08 08:24:40;;;;;;;7.45;5.70;;;-0.60;82.60;;;;;;5026225;28;20059;-60
2024/01/08 08:27:09;;;;;;;7.95;5.57;;;-0.60;82.50;;;;;;5025711;28;20124;-60
2024/01/08 08:29:38;;;;;;;8.43;5.57;;;-0.60;82.60;;;;;;5022779;28;20382;-61
2024/01/08 08:32:05;;;;;;;8.07;5.53;;;-0.60;82.60;;;;;;5027731;28;20096;-61
2024/01/08 08:34:30;;;;;;;7.80;5.65;;;-0.60;82.50;;;;;;5031430;28;20048;-61
2024/01/08 08:36:56;;;;;;;8.00;5.55;;;-0.60;82.60;;;;;;5034611;28;20033;-61
2024/01/08 08:39:22;;;;;;;7.68;5.28;;;-0.50;82.50;;;;;;5029338;28;20045;-62
2024/01/08 08:41:48;;;;;;;6.18;5.20;;;-0.60;82.50;;;;;;5031959;28;20356;-61
2024/01/08 08:44:14;;;;;;;8.68;5.75;;;-0.50;82.50;;;;;;5020755;28;20125;-62
2024/01/08 08:46:39;;;;;;;6.65;5.30;;;-0.50;82.50;;;;;;5027364;28;20041;-61
2024/01/08 08:49:06;;;;;;;7.45;5.32;;;-0.50;82.40;;;;;;5031013;28;20567;-60
2024/01/08 08:51:33;;;;;;;9.25;5.55;;;-0.50;82.50;;;;;;5031623;28;20037;-61
2024/01/08 08:54:02;;;;;;;9.57;6.18;;;-0.50;82.40;;;;;;5029469;28;20401;-61
2024/01/08 08:56:27;;;;;;;6.82;5.50;;;-0.50;82.20;;;;;;5024680;28;20053;-61
2024/01/08 08:58:53;;;;;;;8.32;5.85;;;-0.50;82.20;;;;;;5028272;28;20053;-60
2024/01/08 09:01:18;;;;;;;7.20;5.22;;;-0.50;82.00;;;;;;5026591;28;20052;-60
2024/01/08 09:03:44;;;;;;;8.00;6.05;;;-0.50;82.00;;;;;;5025180;28;20501;-60
2024/01/08 09:06:09;;;;;;;8.75;5.80;;;-0.50;82.00;;;;;;5026503;28;20033;-61
2024/01/08 09:08:35;;;;;;;8.02;5.38;;;-0.50;82.00;;;;;;5026886;28;20038;-62
2024/01/08 09:11:00;;;;;;;9.52;5.97;;;-0.50;82.80;;;;;;5025308;28;20030;-62
2024/01/08 09:13:26;;;;;;;8.77;6.03;;;-0.50;82.00;;;;;;5026638;28;20579;-61
2024/01/08 09:15:52;;;;;;;7.43;5.80;;;-0.50;81.80;;;;;;5021326;28;20037;-60
2024/01/08 09:18:18;;;;;;;7.15;5.30;;;-0.50;81.60;;;;;;5026855;28;20121;-62
2024/01/08 09:20:43;;;;;;;7.65;5.68;;;-0.50;81.60;;;;;;5020659;28;20397;-61
2024/01/08 09:23:09;;;;;;;8.43;5.10;;;-0.50;82.10;;;;;;5024332;28;20041;-61
2024/01/08 09:25:35;;;;;;;7.75;5.15;;;-0.50;81.90;;;;;;5025798;28;20029;-62
2024/01/08 09:28:00;;;;;;;8.75;5.78;;;-0.50;82.00;;;;;;5026552;28;20121;-61
2024/01/08 09:30:26;;;;;;;9.95;5.43;;;-0.50;82.00;;;;;;5026566;28;20098;-62
2024/01/08 09:32:51;;;;;;;8.02;5.53;;;-0.50;81.90;;;;;;5027341;28;20129;-62
2024/01/08 09:35:17;;;;;;;6.20;4.60;;;-0.50;82.00;;;;;;5022976;28;20026;-62
2024/01/08 09:37:43;;;;;;;6.90;5.40;;;-0.50;81.90;;;;;;5028003;28;20505;-61
2024/01/08 09:40:10;;;;;;;7.13;5.80;;;-0.50;81.60;;;;;;5028550;28;20044;-60
2024/01/08 09:42:38;;;;;;;6.93;4.78;;;-0.50;81.60;;;;;;5026937;28;20033;-62
2024/01/08 09:45:10;;;;;;;8.60;5.53;;;-0.50;81.80;;;;;;5025114;28;20057;-60
2024/01/08 09:47:37;;;;;;;7.22;5.10;;;-0.50;81.60;;;;;;5020602;28;20779;-62
2024/01/08 09:50:04;;;;;;;8.40;5.50;;;-0.50;81.90;;;;;;5020431;28;20338;-61
2024/01/08 09:52:32;;;;;;;9.25;5.40;;;-0.50;81.70;;;;;;5031908;28;20029;-60
2024/01/08 09:54:58;;;;;;;8.65;5.57;;;-0.50;81.90;;;;;;5026511;28;20513;-61
2024/01/08 09:57:23;;;;;;;7.47;5.40;;;-0.40;82.00;;;;;;5024338;28;20045;-61
2024/01/08 09:59:49;;;;;;;6.72;5.05;;;-0.40;82.00;;;;;;5028284;28;20041;-61
2024/01/08 10:02:16;;;;;;;8.70;5.57;;;-0.40;82.00;;;;;;5028212;28;20567;-61
2024/01/08 10:04:41;;;;;;;9.45;5.75;;;-0.40;81.80;;;;;;5024764;28;20087;-61
2024/01/08 10:07:12;;;;;;;7.18;5.30;;;-0.40;81.80;;;;;;5026293;28;20044;-60
2024/01/08 10:09:37;;;;;;;9.18;5.57;;;-0.40;81.70;;;;;;5020063;28;20564;-61
2024/01/08 10:12:07;;;;;;;10.13;5.50;;;-0.40;81.80;;;;;;5026154;28;20124;-59
2024/01/08 10:14:32;;;;;;;7.68;5.40;;;-0.40;81.80;;;;;;5023111;28;20038;-61
2024/01/08 10:16:59;;;;;;;7.45;5.47;;;-0.40;81.80;;;;;;5022510;28;20056;-61
2024/01/08 10:19:24;;;;;;;6.97;5.18;;;-0.40;82.00;;;;;;5026343;28;20396;-59
2024/01/08 10:22:12;;;;;;;9.18;5.60;;;-0.40;82.00;;;;;;5023880;28;20042;-61
2024/01/08 10:24:43;;;;;;;7.55;5.25;;;-0.40;81.90;;;;;;5025269;28;20037;-62
2024/01/08 10:27:10;;;;;;;9.63;5.78;;;-0.30;82.10;;;;;;5023344;28;20037;-59
2024/01/08 10:29:36;;;;;;;7.15;5.28;;;-0.30;82.10;;;;;;5025490;28;20068;-61
2024/01/08 10:32:02;;;;;;;8.10;5.38;;;-0.30;82.10;;;;;;5024085;28;20038;-62
2024/01/08 10:34:29;;;;;;;9.32;6.05;;;-0.30;82.20;;;;;;5026911;28;20558;-61
2024/01/08 10:36:57;;;;;;;7.78;5.70;;;-0.30;81.90;;;;;;5024636;28;20022;-62
2024/01/08 10:39:22;;;;;;;7.50;5.60;;;-0.30;82.00;;;;;;5025025;28;20087;-60
2024/01/08 10:41:49;;;;;;;8.88;5.90;;;-0.20;82.10;;;;;;5023609;28;20037;-62
2024/01/08 10:44:15;;;;;;;8.52;5.63;;;-0.20;82.00;;;;;;5022479;28;20045;-60
2024/01/08 10:46:53;;;;;;;10.48;5.97;;;-0.20;82.00;;;;;;5027755;28;20136;-61
2024/01/08 10:49:19;;;;;;;8.00;5.72;;;-0.20;81.50;;;;;;5023999;28;20037;-61
2024/01/08 10:51:48;;;;;;;9.23;6.30;;;-0.20;81.70;;;;;;5023545;28;20412;-60
2024/01/08 10:54:18;;;;;;;8.45;6.20;;;-0.20;81.60;;;;;;5025562;28;20129;-61
2024/01/08 10:56:46;;;;;;;8.55;6.40;;;-0.20;81.60;;;;;;5024691;28;20137;-61
2024/01/08 10:59:12;;;;;;;8.32;6.18;;;-0.20;81.60;;;;;;5025753;28;20087;-61
2024/01/08 11:01:38;;;;;;;9.32;6.47;;;-0.20;81.80;;;;;;5021803;28;20037;-61
2024/01/08 11:04:05;;;;;;;8.20;6.40;;;-0.20;81.70;;;;;;5020114;28;20701;-61
2024/01/08 11:06:34;;;;;;;7.85;5.43;;;-0.20;81.80;;;;;;5024145;28;20051;-61
2024/01/08 11:09:04;;;;;;;7.25;5.03;;;-0.20;81.70;;;;;;5017824;28;20030;-61
2024/01/08 11:11:33;;;;;;;7.53;5.03;;;-0.20;81.70;;;;;;5021892;28;20416;-61
2024/01/08 11:13:59;;;;;;;7.63;5.20;;;-0.20;81.80;;;;;;5022012;28;20042;-61
2024/01/08 11:16:29;;;;;;;9.13;5.85;;;-0.20;82.00;;;;;;5023302;28;20493;-61
2024/01/08 11:19:19;;;;;;;7.07;5.13;;;-0.20;82.00;;;;;;5023973;28;20386;-61
2024/01/08 11:21:48;;;;;;;7.07;5.15;;;-0.20;81.90;;;;;;5016610;28;22777;-59
2024/01/08 11:24:14;;;;;;;8.40;5.85;;;-0.20;82.10;;;;;;5021800;28;20041;-60
2024/01/08 11:26:41;;;;;;;7.70;6.32;;;-0.20;82.10;;;;;;5021635;28;20033;-59
2024/01/08 11:29:10;;;;;;;9.05;5.72;;;-0.20;82.10;;;;;;5018393;28;20236;-60
2024/01/08 11:31:48;;;;;;;7.90;5.57;;;-0.20;82.10;;;;;;5027483;28;20037;-57
2024/01/08 11:34:51;;;;;;;8.38;5.93;;;-0.20;81.80;;;;;;5025780;28;20037;-60
2024/01/08 11:37:36;;;;;;;11.23;6.30;;;-0.20;81.70;;;;;;5025803;28;20046;-62
2024/01/08 11:40:02;;;;;;;8.35;5.72;;;-0.20;81.80;;;;;;5022822;28;20506;-61
2024/01/08 11:42:29;;;;;;;10.35;6.20;;;-0.20;82.00;;;;;;5023389;28;20049;-61
2024/01/08 11:45:00;;;;;;;9.48;6.18;;;-0.20;82.00;;;;;;5026912;28;20030;-61
2024/01/08 11:47:26;;;;;;;8.85;5.72;;;-0.10;82.00;;;;;;5030257;28;20057;-59
2024/01/08 11:49:51;;;;;;;7.88;5.80;;;-0.20;82.00;;;;;;5034795;28;20073;-60
2024/01/08 11:52:18;;;;;;;8.02;6.07;;;-0.20;82.00;;;;;;5025679;28;20416;-61
2024/01/08 11:54:48;;;;;;;9.68;6.25;;;-0.10;82.10;;;;;;5022144;28;20058;-61
2024/01/08 11:57:17;;;;;;;10.60;6.50;;;-0.10;82.20;;;;;;5030249;28;20155;-59
2024/01/08 11:59:43;;;;;;;9.10;5.65;;;-0.10;82.30;;;;;;5030064;28;20049;-60
2024/01/08 12:02:16;;;;;;;11.35;6.78;;;-0.10;82.40;;;;;;5025589;28;20501;-61
2024/01/08 12:04:50;;;;;;;8.90;5.97;;;0.00;82.20;;;;;;5028886;28;20124;-59
2024/01/08 12:07:16;;;;;;;10.68;6.72;;;0.00;82.10;;;;;;5027686;28;20038;-61
2024/01/08 12:09:41;;;;;;;9.68;6.32;;;0.00;82.10;;;;;;5027198;28;20040;-60
2024/01/08 12:12:11;;;;;;;10.77;6.25;;;0.00;82.10;;;;;;5027748;28;20451;-60
2024/01/08 12:14:37;;;;;;;10.50;6.32;;;0.00;82.00;;;;;;5025490;28;20155;-60
2024/01/08 12:17:03;;;;;;;11.30;6.68;;;0.00;82.10;;;;;;5025623;28;20136;-61
2024/01/08 12:19:40;;;;;;;9.02;6.50;;;0.00;82.10;;;;;;5022463;28;20500;-61
2024/01/08 12:22:06;;;;;;;9.27;6.18;;;0.00;81.80;;;;;;5026501;28;20048;-60
2024/01/08 12:24:35;;;;;;;10.02;5.93;;;0.00;81.90;;;;;;5028281;28;20045;-61
2024/01/08 12:27:04;;;;;;;10.85;6.40;;;0.00;82.00;;;;;;5025023;28;20046;-60
2024/01/08 12:29:31;;;;;;;10.10;6.18;;;0.00;82.10;;;;;;5026936;28;20573;-60
2024/01/08 12:32:00;;;;;;;10.07;6.53;;;0.00;82.00;;;;;;5030677;28;20041;-59
2024/01/08 12:34:37;;;;;;;8.70;5.93;;;0.00;82.00;;;;;;5025316;28;20509;-60
2024/01/08 12:37:03;;;;;;;10.52;6.65;;;0.00;82.00;;;;;;5025965;28;20449;-60
2024/01/08 12:39:33;;;;;;;10.27;6.68;;;0.00;82.10;;;;;;5028233;28;20034;-59
2024/01/08 12:42:00;;;;;;;10.70;7.03;;;0.00;82.00;;;;;;5027042;28;20314;-59